Metar Cercanos

 

LEPA - Palma De Mallorc, Spain
Distance from station: ONO 38km
Actualización: 24/02/2018 16:30
Muy nuboso
Muy nuboso
 Viento del OSO
Viento: OSO 15 km/h
Temperatura: 12°C
Rocío: 3°C
Humedad: 54%
Barómetro: 1007 hPa
Clouds: Muy nuboso
Visibility: 10 km
Cloud details: Few Clouds 671 m
Muy nuboso 1981 m
2018/02/24 15:30 LEPA 241530Z 24008KT 210V280 9999 FEW022 BKN065 12/03 Q1007 NOSIG
LEMH - Mahon/Menorca Is, Spain
Distance from station: ENE 105km
Actualización: 24/02/2018 16:30
Muy nuboso
Muy nuboso
 Viento del SO
Viento: SO 6 km/h
Temperatura: 11°C
Rocío: 3°C
Humedad: 58%
Barómetro: 1007 hPa
Clouds: Muy nuboso
Visibility: 10 km
Cloud details: Muy nuboso 1067 m
2018/02/24 15:30 LEMH 241530Z 23003KT 170V280 9999 BKN035 11/03 Q1007
 
LEIB - Ibiza/Es Codola, Spain
Distance from station: OSO 165km
Actualización: 24/02/2018 16:30
Parcialmente nuboso
Parcialmente nuboso
 Viento del E
Viento: E 6 km/h
Temperatura: 13°C
Rocío: 5°C
Humedad: 59%
Barómetro: 1008 hPa
Clouds: Parcialmente nuboso
Visibility: 10 km
Cloud details: Few Clouds 610 m
Parcialmente nuboso 914 m
2018/02/24 15:30 LEIB 241530Z 08003KT 350V140 9999 FEW020 SCT030TCU 13/05 Q1008 NOSIG
LEBL - Barcelona Airpor, Spain
Distance from station: NNO 225km
Actualización: 24/02/2018 16:30
Few Clouds
Few Clouds
 Viento del SO
Viento: SO 20 km/h
Temperatura: 11°C
Rocío: 3°C
Humedad: 58%
Barómetro: 1007 hPa
Clouds: Few Clouds
Visibility: 10 km
Cloud details: Few Clouds 762 m
2018/02/24 15:30 LEBL 241530Z 22011KT 9999 FEW025 11/03 Q1007 NOSIG
 
LEVC - Valencia (civ/Mi, Spain
Distance from station: NO 188km
Actualización: 24/02/2018 16:30
Few Clouds
Few Clouds
 Viento del ESE
Viento: ESE 15 km/h
Temperatura: 13°C
Rocío: 3°C
Humedad: 51%
Barómetro: 1006 hPa
Clouds: Few Clouds
Visibility: 10 km
Cloud details: Few Clouds 1067 m
2018/02/24 15:30 LEVC 241530Z 12008KT 100V160 9999 FEW035 13/03 Q1006 NOSIG
LEGE - Gerona/Costa Bra, Spain
Distance from station: N 276km
Actualización: 24/02/2018 16:30
Parcialmente nuboso
Parcialmente nuboso
 Viento del SE
Viento: SE 15 km/h
Temperatura: 10°C
Sensación frio: 8°C
Rocío: 4°C
Humedad: 67%
Barómetro: 1007 hPa
Clouds: Parcialmente nuboso
Visibility: 10 km
Cloud details: Parcialmente nuboso 1219 m
2018/02/24 15:30 LEGE 241530Z 13008KT 090V150 9999 SCT040 10/04 Q1007
 
LEAL - Alicante/El Alte, Spain
Distance from station: OSO 344km
Actualización: 24/02/2018 16:30
Few Clouds
Few Clouds
 Viento del E
Viento: E 11 km/h
Temperatura: 13°C
Rocío: 6°C
Humedad: 63%
Barómetro: 1007 hPa
Clouds: Few Clouds
Visibility: 10 km
Cloud details: Few Clouds 975 m
2018/02/24 15:30 LEAL 241530Z 09006KT 050V140 9999 FEW032TCU 13/06 Q1007 NOSIG
LEAM - Almeria Airport, Spain
Distance from station: SSO 56km
Actualización: 24/02/2018 16:30
Parcialmente nuboso
Parcialmente nuboso
 Viento del S
Viento: S 15 km/h
Temperatura: 14°C
Rocío: 6°C
Humedad: 59%
Barómetro: 1007 hPa
Clouds: Parcialmente nuboso
Visibility: 10 km
Cloud details: Parcialmente nuboso 1219 m
2018/02/24 15:30 LEAM 241530Z 17008KT 140V210 9999 SCT040 14/06 Q1007
 
LEZG - Zaragoza (mil/Ci, Spain
Distance from station: NO 431km
Actualización: 24/02/2018 16:30
Despejado
Despejado
 Viento del NNE
Viento: NNE 4 km/h
Temperatura: 11°C
Rocío: -2°C
Humedad: 41%
Barómetro: 1007 hPa
Resumen: Despejado
Visibility: greater than 10 km
2018/02/24 15:30 LEZG 241530Z 03002KT CAVOK 11/M02 Q1007
LEMD - Madrid/Barajas, Spain
Distance from station: ONO 234km
Actualización: 24/02/2018 16:30
Despejado
Despejado
 Viento del S
Viento: S 9 km/h
Temperatura: 12°C
Rocío: -10°C
Humedad: 21%
Barómetro: 1005 hPa
Resumen: Despejado
Visibility: greater than 10 km
2018/02/24 15:30 LEMD 241530Z 19005KT CAVOK 12/M10 Q1005 NOSIG
 
LEGR - Granada Airport, Spain
Distance from station: OSO 62km
Actualización: 24/02/2018 16:30
Muy nuboso
Muy nuboso
 Viento del varies
Viento: varies 2 km/h
Temperatura: 13°C
Rocío: -2°C
Humedad: 36%
Barómetro: 1006 hPa
Clouds: Muy nuboso
Visibility: 10 km
Cloud details: Few Clouds 1006 m
Muy nuboso 1372 m
2018/02/24 15:30 LEGR 241530Z VRB01KT 9999 FEW033 BKN045 13/M02 Q1006
LEMG - Malaga (civ/Mil), Spain
Distance from station: OSO 227km
Actualización: 24/02/2018 16:30
Parcialmente nuboso
Parcialmente nuboso
 Viento del SSE
Viento: SSE 15 km/h
Temperatura: 14°C
Rocío: 7°C
Humedad: 63%
Barómetro: 1008 hPa
Clouds: Parcialmente nuboso
Visibility: 10 km
Cloud details: Few Clouds 914 m
Parcialmente nuboso 2134 m
2018/02/24 15:30 LEMG 241530Z 15008KT 120V190 9999 FEW030 SCT070 14/07 Q1008 NOSIG
 
LEZL - Sevilla (civ/Mil, Spain
Distance from station: S 318km
Actualización: 24/02/2018 16:30
Few Clouds
Few Clouds
 Viento del OSO
Viento: OSO 13 km/h
Temperatura: 17°C
Rocío: 4°C
Humedad: 42%
Barómetro: 1006 hPa
Clouds: Few Clouds
Visibility: 10 km
Cloud details: Few Clouds 1494 m
2018/02/24 15:30 LEZL 241530Z 24007KT 200V290 9999 FEW049 17/04 Q1006 NOSIG
LEVT - Vitoria, Spain
Distance from station: NO 226km
Actualización: 24/02/2018 16:30
Few Clouds
Few Clouds
 Viento del SO
Viento: SO 2 km/h
Temperatura: 9°C
Rocío: -1°C
Humedad: 50%
Barómetro: 1007 hPa
Clouds: Few Clouds
Visibility: 10 km
Cloud details: Few Clouds 610 m
2018/02/24 15:30 LEVT 241530Z 22001KT 9999 FEW020 09/M01 Q1007
 
LEBB - Bilbao/Sondica, Spain
Distance from station: NNO 235km
Actualización: 24/02/2018 16:30
Few Clouds
Few Clouds
 Viento del N
Viento: N 13 km/h
Temperatura: 9°C
Sensación frio: 7°C
Rocío: 3°C
Humedad: 66%
Barómetro: 1009 hPa
Clouds: Few Clouds
Visibility: 10 km
Cloud details: Few Clouds 914 m
2018/02/24 15:30 LEBB 241530Z 36007KT 330V060 9999 FEW030 09/03 Q1009 NOSIG
LESO - San Sebastian/Fu, Spain
Distance from station: N 231km
Actualización: 24/02/2018 16:30
Parcialmente nuboso
Parcialmente nuboso
 Viento del N
Viento: N 9 km/h
Temperatura: 9°C
Sensación frio: 7°C
Rocío: 3°C
Humedad: 66%
Barómetro: 1010 hPa
Clouds: Parcialmente nuboso
Visibility: 9 km
2018/02/24 15:30 LESO 241530Z 36005KT 320V060 9000 NSC 09/03 Q1010
 
LEVD - Valladolid(Mil/C, Spain
Distance from station: ONO 239km
Actualización: 24/02/2018 16:30
Despejado
Despejado
 Viento del S
Viento: S 6 km/h
Temperatura: 9°C
Rocío: -13°C
Humedad: 20%
Barómetro: 1005 hPa
Resumen: Despejado
Visibility: greater than 10 km
2018/02/24 15:30 LEVD 241530Z 18003KT 100V230 CAVOK 09/M13 Q1005
LESA - Salamanca (civ/M, Spain
Distance from station: ONO 349km
Actualización: 24/02/2018 16:30
Despejado
Despejado
 Viento del ONO
Viento: ONO 9 km/h
Temperatura: 11°C
Rocío: -11°C
Humedad: 20%
Barómetro: 1005 hPa
Resumen: Despejado
Visibility: greater than 10 km
2018/02/24 15:30 LESA 241530Z 29005KT 240V340 CAVOK 11/M11 Q1005
 
LEXJ - Santander/Paraya, Spain
Distance from station: NNO 247km
Actualización: 24/02/2018 16:30
Parcialmente nuboso
Parcialmente nuboso
 Viento del NE
Viento: NE 20 km/h
Temperatura: 8°C
Sensación frio: 4°C
Rocío: 2°C
Humedad: 66%
Barómetro: 1009 hPa
Clouds: Parcialmente nuboso
Visibility: 9 km
2018/02/24 15:30 LEXJ 241530Z 05011KT 020V080 9000 NSC 08/02 Q1009
LEAS - Asturias/Aviles, Spain
Distance from station: NO 214km
Actualización: 24/02/2018 16:30
Few Clouds
Few Clouds
 Viento del E
Viento: E 17 km/h
Temperatura: 8°C
Sensación frio: 5°C
Rocío: 2°C
Humedad: 66%
Barómetro: 1008 hPa
Clouds: Few Clouds
Visibility: 10 km
Cloud details: Few Clouds 792 m
2018/02/24 15:30 LEAS 241530Z 09009KT 040V120 9999 FEW026 08/02 Q1008 NOSIG
 
LECO - La Coruna/Alvedr, Spain
Distance from station: ONO 222km
Actualización: 24/02/2018 16:30
Despejado
Despejado
 Viento del N
Viento: N 9 km/h
Temperatura: 13°C
Rocío: 3°C
Humedad: 51%
Barómetro: 1006 hPa
Resumen: Despejado
Visibility: greater than 10 km
2018/02/24 15:30 LECO 241530Z 01005KT 320V060 CAVOK 13/03 Q1006 NOSIG
LEVX - Vigo/Peinador, Spain
Distance from station: O 214km
Actualización: 24/02/2018 16:30
Despejado
Despejado
 Viento del OSO
Viento: OSO 13 km/h
Temperatura: 14°C
Rocío: -3°C
Humedad: 31%
Barómetro: 1005 hPa
Resumen: Despejado
Visibility: greater than 10 km
2018/02/24 15:30 LEVX 241530Z 25007KT 230V300 CAVOK 14/M03 Q1005 NOSIG